Time;durP1;ratioP1;P1;durP2;ratioP2;P2;SDS_P1;SDS_P2;PMS_P1;PMS_P2;Temp;Humidity;BMP_temperature;BMP_pressure;BME280_temperature;BME280_humidity;BME280_pressure;Samples;Min_cycle;Max_cycle;Signal;HPM_P1;HPM_P2
2022/06/07 00:00:21;;;;;;;4.67;4.00;;;22.60;99.90;;;;;;6329016;28;20570;-63
2022/06/07 00:03:24;;;;;;;4.53;3.50;;;22.60;99.90;;;;;;6330116;28;20245;-63
2022/06/07 00:06:28;;;;;;;4.40;3.30;;;22.60;99.90;;;;;;6328835;28;20246;-64
2022/06/07 00:09:31;;;;;;;3.73;3.00;;;22.60;99.90;;;;;;6318148;28;20234;-63
2022/06/07 00:12:34;;;;;;;3.63;3.10;;;22.60;99.90;;;;;;6327281;28;20786;-63
2022/06/07 00:15:39;;;;;;;3.03;2.83;;;22.50;99.90;;;;;;6327403;28;20703;-63
2022/06/07 00:18:43;;;;;;;7.77;3.30;;;22.50;99.90;;;;;;6326723;28;20583;-63
2022/06/07 00:21:46;;;;;;;4.53;3.00;;;22.50;99.90;;;;;;6327451;28;20237;-63
2022/06/07 00:24:49;;;;;;;3.37;3.07;;;22.50;99.90;;;;;;6327698;28;20260;-63
2022/06/07 00:27:52;;;;;;;3.90;3.30;;;22.50;99.90;;;;;;6327121;28;20226;-63
2022/06/07 00:30:58;;;;;;;5.60;3.40;;;22.40;99.90;;;;;;6327438;28;20229;-63
2022/06/07 00:34:02;;;;;;;3.67;3.27;;;22.40;99.90;;;;;;6326647;28;20978;-63
2022/06/07 00:37:05;;;;;;;3.27;2.97;;;22.40;99.90;;;;;;6326721;28;20235;-63
2022/06/07 00:40:10;;;;;;;3.30;3.03;;;22.30;99.90;;;;;;6326618;28;20227;-63
2022/06/07 00:43:13;;;;;;;4.43;3.70;;;22.20;99.90;;;;;;6326686;28;20237;-63
2022/06/07 00:46:17;;;;;;;3.40;2.83;;;22.10;99.90;;;;;;6326596;28;20708;-63
2022/06/07 00:49:23;;;;;;;5.10;3.50;;;22.20;99.90;;;;;;6326547;28;20727;-63
2022/06/07 00:52:29;;;;;;;3.60;3.30;;;22.10;99.90;;;;;;6326520;28;20584;-63
2022/06/07 00:55:32;;;;;;;4.00;3.50;;;22.10;99.90;;;;;;6326058;28;20232;-63
2022/06/07 00:58:36;;;;;;;4.00;3.60;;;22.10;99.90;;;;;;6326021;28;20568;-63
2022/06/07 01:01:40;;;;;;;3.60;3.30;;;22.00;99.90;;;;;;6325870;28;20311;-63
2022/06/07 01:04:43;;;;;;;4.10;3.70;;;22.00;99.90;;;;;;6326235;28;20245;-63
2022/06/07 01:11:07;;;;;;;3.90;3.50;;;22.00;99.90;;;;;;6293961;28;20231;-63
2022/06/07 01:14:12;;;;;;;4.00;3.27;;;22.00;99.90;;;;;;6325690;28;20324;-63
2022/06/07 01:17:19;;;;;;;5.60;4.10;;;22.00;99.90;;;;;;6301362;28;20246;-63
2022/06/07 01:20:22;;;;;;;3.60;3.30;;;22.00;99.90;;;;;;6300695;28;20204;-64
2022/06/07 01:23:28;;;;;;;3.80;3.50;;;22.00;99.90;;;;;;6300248;28;20246;-63
2022/06/07 01:26:31;;;;;;;4.00;3.20;;;22.00;99.90;;;;;;6300028;28;20272;-63
2022/06/07 01:29:34;;;;;;;3.50;2.80;;;21.90;99.90;;;;;;6299868;28;20246;-63
2022/06/07 01:32:37;;;;;;;3.80;3.50;;;21.90;99.90;;;;;;6299857;28;20227;-64
2022/06/07 01:35:41;;;;;;;3.60;3.07;;;21.80;99.90;;;;;;6313367;28;20230;-64
2022/06/07 01:41:53;;;;;;;3.30;3.10;;;21.70;99.90;;;;;;6301553;28;20661;-64
2022/06/07 01:42:10;;;;;;;3.33;3.03;;;21.60;99.90;;;;;;6299685;28;20231;-64
2022/06/07 01:45:13;;;;;;;3.77;3.47;;;21.60;99.90;;;;;;6300003;28;20242;-64
2022/06/07 01:48:16;;;;;;;3.60;3.30;;;21.60;99.90;;;;;;6300215;28;20237;-64
2022/06/07 01:51:20;;;;;;;3.63;3.33;;;21.50;99.90;;;;;;6299518;28;20242;-64
2022/06/07 01:54:24;;;;;;;4.33;3.27;;;21.50;99.90;;;;;;6306220;23;20234;-66
2022/06/07 01:57:30;;;;;;;3.50;2.93;;;21.50;99.90;;;;;;6312353;28;20585;-66
2022/06/07 02:00:33;;;;;;;3.87;3.30;;;21.40;99.90;;;;;;6313005;28;20227;-66
2022/06/07 02:03:36;;;;;;;3.27;2.97;;;21.40;99.90;;;;;;6300079;28;20245;-66
2022/06/07 02:06:40;;;;;;;3.80;3.50;;;21.40;99.90;;;;;;6301056;28;20222;-66
2022/06/07 02:09:44;;;;;;;3.27;2.97;;;21.30;99.90;;;;;;6300673;28;20233;-66
2022/06/07 02:12:48;;;;;;;4.10;3.70;;;21.30;99.90;;;;;;6300976;28;20231;-66
2022/06/07 02:15:51;;;;;;;8.27;3.67;;;21.30;99.90;;;;;;6300785;28;20238;-66
2022/06/07 02:18:54;;;;;;;3.50;3.30;;;21.20;99.90;;;;;;6286617;28;20248;-66
2022/06/07 02:21:57;;;;;;;3.70;3.40;;;21.20;99.90;;;;;;6300943;28;20235;-66
2022/06/07 02:25:02;;;;;;;3.57;3.27;;;21.20;99.90;;;;;;6300528;28;20345;-66
2022/06/07 02:28:06;;;;;;;3.30;3.10;;;21.10;99.90;;;;;;6300521;28;20607;-66
2022/06/07 02:31:11;;;;;;;4.00;3.30;;;21.10;99.90;;;;;;6300827;28;20237;-66
2022/06/07 02:34:18;;;;;;;5.67;3.10;;;21.10;99.90;;;;;;6300135;28;20245;-65
2022/06/07 02:37:22;;;;;;;4.10;3.00;;;21.00;99.90;;;;;;6300370;28;20231;-66
2022/06/07 02:40:26;;;;;;;2.83;2.63;;;21.00;99.90;;;;;;6300162;28;20257;-66
2022/06/07 02:43:30;;;;;;;2.90;2.70;;;21.00;99.90;;;;;;6300420;28;20242;-66
2022/06/07 02:46:33;;;;;;;3.50;2.93;;;20.80;99.90;;;;;;6300009;28;20296;-66
2022/06/07 02:49:37;;;;;;;4.10;3.80;;;20.80;99.90;;;;;;6300126;28;20219;-66
2022/06/07 02:52:40;;;;;;;3.43;3.13;;;20.70;99.90;;;;;;6300024;28;20573;-66
2022/06/07 02:55:44;;;;;;;4.10;3.23;;;20.70;99.90;;;;;;6300531;28;20227;-66
2022/06/07 02:58:47;;;;;;;3.17;2.97;;;20.70;99.90;;;;;;6300107;28;20231;-66
2022/06/07 03:01:50;;;;;;;3.90;3.47;;;20.70;99.90;;;;;;6299967;28;20230;-66
2022/06/07 03:04:54;;;;;;;3.23;2.90;;;20.70;99.90;;;;;;6300197;28;20251;-66
2022/06/07 03:07:57;;;;;;;4.47;3.57;;;20.70;99.90;;;;;;6299942;28;20260;-66
2022/06/07 03:11:02;;;;;;;3.47;3.17;;;20.60;99.90;;;;;;6300017;28;20223;-66
2022/06/07 03:14:05;;;;;;;6.00;3.00;;;20.60;99.90;;;;;;6299759;28;20645;-66
2022/06/07 03:17:09;;;;;;;3.10;2.80;;;20.50;99.90;;;;;;6299824;28;20290;-66
2022/06/07 03:20:13;;;;;;;4.10;3.20;;;20.50;99.90;;;;;;6291038;28;20269;-65
2022/06/07 03:23:16;;;;;;;3.80;3.50;;;20.50;99.90;;;;;;6298645;28;20649;-65
2022/06/07 03:26:21;;;;;;;5.63;3.57;;;20.60;99.90;;;;;;6298842;28;20211;-65
2022/06/07 03:29:24;;;;;;;4.00;3.60;;;20.60;99.90;;;;;;6299029;28;20206;-65
2022/06/07 03:32:27;;;;;;;4.40;3.60;;;20.60;99.90;;;;;;6298527;28;20556;-65
2022/06/07 03:35:30;;;;;;;5.60;3.73;;;20.60;99.90;;;;;;6298338;28;20699;-65
2022/06/07 03:38:34;;;;;;;4.17;3.80;;;20.50;99.90;;;;;;6298667;28;20255;-65
2022/06/07 03:41:39;;;;;;;6.60;2.93;;;20.50;99.90;;;;;;6298355;28;20227;-65
2022/06/07 03:44:45;;;;;;;3.40;3.10;;;20.50;99.90;;;;;;6298657;28;20232;-65
2022/06/07 03:47:48;;;;;;;3.30;3.03;;;20.40;99.90;;;;;;6298768;28;20227;-65
2022/06/07 03:50:51;;;;;;;3.00;2.80;;;20.40;99.90;;;;;;6298858;28;20231;-65
2022/06/07 03:53:55;;;;;;;4.20;3.80;;;20.50;99.90;;;;;;6302502;28;20242;-65
2022/06/07 03:56:59;;;;;;;5.23;3.40;;;20.50;99.90;;;;;;6302427;28;20540;-65
2022/06/07 04:00:06;;;;;;;3.73;3.43;;;20.60;99.90;;;;;;6302848;28;20321;-65
2022/06/07 04:03:09;;;;;;;4.90;3.53;;;20.70;99.90;;;;;;6302594;28;20560;-65
2022/06/07 04:06:21;;;;;;;3.30;3.03;;;20.70;99.90;;;;;;6302609;28;20310;-65
2022/06/07 04:09:24;;;;;;;4.00;3.60;;;20.70;99.90;;;;;;6302673;28;20226;-65
2022/06/07 04:12:28;;;;;;;4.30;3.23;;;20.60;99.90;;;;;;6302653;28;20590;-64
2022/06/07 04:15:32;;;;;;;3.90;3.50;;;20.70;99.90;;;;;;6302502;28;20238;-65
2022/06/07 04:18:35;;;;;;;4.10;3.70;;;20.70;99.90;;;;;;6302483;28;20234;-65
2022/06/07 04:21:38;;;;;;;4.57;4.17;;;20.70;99.90;;;;;;6302221;28;20242;-65
2022/06/07 04:24:41;;;;;;;3.27;3.00;;;20.80;99.90;;;;;;6297679;28;20556;-64
2022/06/07 04:27:45;;;;;;;4.43;3.20;;;20.90;99.90;;;;;;6302000;28;20235;-64
2022/06/07 04:30:50;;;;;;;4.03;3.30;;;21.00;99.90;;;;;;6302231;28;20227;-64
2022/06/07 04:33:56;;;;;;;3.53;3.13;;;21.10;99.90;;;;;;6301822;28;20241;-64
2022/06/07 04:36:59;;;;;;;7.10;3.63;;;21.30;99.90;;;;;;6302211;28;20227;-65
2022/06/07 04:40:02;;;;;;;3.83;3.57;;;21.40;99.90;;;;;;6301701;28;20318;-64
2022/06/07 04:43:09;;;;;;;4.53;4.13;;;21.50;99.90;;;;;;6301840;28;20227;-64
2022/06/07 04:46:14;;;;;;;3.97;3.67;;;21.60;99.90;;;;;;6301790;28;20231;-65
2022/06/07 04:49:17;;;;;;;4.50;4.10;;;21.70;99.90;;;;;;6301515;28;20309;-65
2022/06/07 04:52:20;;;;;;;4.03;3.63;;;21.70;99.90;;;;;;6301114;28;20245;-65
2022/06/07 04:55:25;;;;;;;5.27;3.90;;;21.90;99.90;;;;;;6301432;28;20664;-65
2022/06/07 04:58:29;;;;;;;4.07;3.77;;;22.00;99.90;;;;;;6301446;28;20242;-65
2022/06/07 05:01:35;;;;;;;4.73;4.10;;;22.10;99.90;;;;;;6300718;28;20680;-65
2022/06/07 05:04:38;;;;;;;4.60;3.27;;;22.20;99.90;;;;;;6300958;28;20231;-65
2022/06/07 05:07:41;;;;;;;4.37;3.97;;;22.40;99.90;;;;;;6301210;28;20231;-65
2022/06/07 05:10:45;;;;;;;5.30;4.50;;;22.50;99.90;;;;;;6301182;28;20214;-65
2022/06/07 05:13:52;;;;;;;5.27;4.03;;;22.60;99.90;;;;;;6300049;28;20243;-65
2022/06/07 05:16:57;;;;;;;4.20;3.90;;;22.70;99.90;;;;;;6300148;28;20242;-65
2022/06/07 05:20:01;;;;;;;7.63;4.30;;;22.90;99.90;;;;;;6300875;28;20231;-65
2022/06/07 05:23:04;;;;;;;6.00;4.13;;;23.00;99.90;;;;;;6301089;28;20230;-65
2022/06/07 05:26:11;;;;;;;4.47;4.07;;;23.20;99.90;;;;;;6300535;28;20265;-65
2022/06/07 05:29:19;;;;;;;4.40;4.00;;;23.40;99.90;;;;;;6300381;28;20210;-65
2022/06/07 05:32:23;;;;;;;4.97;4.60;;;23.50;99.90;;;;;;6300493;28;20227;-64
2022/06/07 05:35:26;;;;;;;4.90;4.40;;;23.60;99.90;;;;;;6301059;28;20206;-64
2022/06/07 05:38:29;;;;;;;9.00;4.17;;;23.60;99.80;;;;;;6300311;28;20669;-64
2022/06/07 05:41:33;;;;;;;3.50;3.30;;;23.70;99.30;;;;;;6300613;28;20230;-64
2022/06/07 05:44:37;;;;;;;3.90;2.97;;;23.90;99.50;;;;;;6301629;28;20235;-64
2022/06/07 05:47:41;;;;;;;3.73;3.47;;;24.10;99.10;;;;;;6293237;28;20223;-64
2022/06/07 05:50:48;;;;;;;4.33;3.87;;;24.30;98.60;;;;;;6275585;28;20378;-64
2022/06/07 05:53:54;;;;;;;3.73;3.43;;;24.40;98.40;;;;;;6274722;28;20568;-64
2022/06/07 05:56:58;;;;;;;2.80;2.60;;;24.50;98.00;;;;;;6275377;28;20708;-64
2022/06/07 06:00:04;;;;;;;6.20;3.03;;;24.50;97.00;;;;;;6275124;28;20247;-64
2022/06/07 06:03:07;;;;;;;5.93;3.80;;;24.60;97.30;;;;;;6275580;28;20242;-64
2022/06/07 06:06:12;;;;;;;3.93;3.60;;;24.90;97.00;;;;;;6275529;28;20266;-64
2022/06/07 06:12:35;;;;;;;4.13;3.40;;;25.40;95.50;;;;;;6274726;28;20380;-63
2022/06/07 06:15:40;;;;;;;3.47;3.17;;;25.90;95.40;;;;;;6274344;28;20227;-63
2022/06/07 06:18:43;;;;;;;3.43;3.23;;;26.50;94.30;;;;;;6274532;28;20574;-63
2022/06/07 06:21:46;;;;;;;3.40;3.20;;;26.90;93.30;;;;;;6274944;28;20241;-63
2022/06/07 06:24:50;;;;;;;5.23;3.07;;;27.50;92.50;;;;;;6274947;28;20231;-63
2022/06/07 06:27:53;;;;;;;3.47;3.17;;;28.20;90.60;;;;;;6275018;28;20668;-64
2022/06/07 06:31:03;;;;;;;3.60;3.30;;;28.80;89.80;;;;;;6274623;28;20227;-64
2022/06/07 06:34:07;;;;;;;3.40;2.97;;;29.50;87.00;;;;;;6276952;28;20223;-65
2022/06/07 06:37:11;;;;;;;3.90;3.20;;;29.80;84.50;;;;;;6274412;28;20703;-64
2022/06/07 06:40:14;;;;;;;4.70;3.23;;;29.20;83.20;;;;;;6273957;28;20338;-65
2022/06/07 06:43:20;;;;;;;5.20;3.50;;;29.60;83.50;;;;;;6274469;28;20227;-65
2022/06/07 06:46:28;;;;;;;3.63;3.33;;;30.70;80.50;;;;;;6274382;28;20697;-64
2022/06/07 06:49:32;;;;;;;2.80;2.60;;;31.70;75.80;;;;;;6274568;28;20223;-64
2022/06/07 06:52:40;;;;;;;2.97;2.67;;;32.30;72.20;;;;;;6273879;28;20232;-64
2022/06/07 06:55:44;;;;;;;2.75;2.55;;;33.20;67.20;;;;;;6274450;28;20227;-64
2022/06/07 06:58:48;;;;;;;3.40;3.10;;;33.60;63.40;;;;;;6274456;28;20699;-64
2022/06/07 07:01:53;;;;;;;2.67;2.47;;;33.60;61.60;;;;;;6274524;28;20226;-64
2022/06/07 07:04:56;;;;;;;3.38;3.05;;;32.90;61.30;;;;;;6274499;28;20231;-65
2022/06/07 07:07:59;;;;;;;3.15;2.80;;;32.40;61.70;;;;;;6274648;28;20230;-64
2022/06/07 07:11:09;;;;;;;2.90;2.70;;;31.90;63.50;;;;;;6274276;28;20264;-64
2022/06/07 07:14:12;;;;;;;5.15;2.95;;;31.20;63.70;;;;;;6274275;28;20223;-64
2022/06/07 07:17:18;;;;;;;3.72;3.42;;;31.00;63.90;;;;;;6274290;28;20548;-64
2022/06/07 07:20:21;;;;;;;2.80;2.60;;;30.60;64.20;;;;;;6274558;28;20227;-64
2022/06/07 07:23:24;;;;;;;3.38;3.08;;;32.00;61.90;;;;;;6274647;28;20227;-64
2022/06/07 07:26:30;;;;;;;2.65;2.45;;;32.80;59.20;;;;;;6276739;28;20235;-65
2022/06/07 07:47:26;;;;;;;3.60;2.70;;;32.70;59.20;;;;;;6278461;28;20573;-63
2022/06/07 07:50:29;;;;;;;2.63;2.38;;;34.40;56.60;;;;;;6275308;28;20231;-64
2022/06/07 07:53:32;;;;;;;2.47;2.20;;;34.90;54.40;;;;;;6278699;28;20562;-64
2022/06/07 07:56:36;;;;;;;2.83;2.55;;;35.00;53.50;;;;;;6278623;28;20199;-64
2022/06/07 07:59:39;;;;;;;4.03;2.85;;;34.60;53.10;;;;;;6278417;28;20217;-64
2022/06/07 08:02:43;;;;;;;2.75;2.55;;;34.10;52.20;;;;;;6277533;28;20313;-64
2022/06/07 08:05:47;;;;;;;2.85;2.65;;;33.30;51.10;;;;;;6277607;28;20231;-64
2022/06/07 08:08:53;;;;;;;4.80;3.20;;;32.90;50.70;;;;;;6278085;28;20246;-64
2022/06/07 08:11:58;;;;;;;3.67;2.42;;;33.00;51.70;;;;;;6277666;28;20361;-64
2022/06/07 08:15:02;;;;;;;3.72;3.33;;;33.00;52.00;;;;;;6278197;28;20226;-64
2022/06/07 08:18:06;;;;;;;2.83;2.63;;;32.90;52.40;;;;;;6277455;28;20218;-64
2022/06/07 08:21:13;;;;;;;3.85;2.38;;;32.50;50.50;;;;;;6277937;28;20301;-64
2022/06/07 08:24:17;;;;;;;2.60;2.40;;;32.40;51.60;;;;;;6277818;28;20242;-64
2022/06/07 08:27:20;;;;;;;2.97;2.67;;;32.20;51.90;;;;;;6277654;28;20227;-66
2022/06/07 08:30:24;;;;;;;2.70;2.40;;;32.40;50.40;;;;;;6277527;28;20219;-63
2022/06/07 08:40:26;;;;;;;2.60;2.40;;;31.20;50.70;;;;;;6276922;28;20552;-63
2022/06/07 08:43:29;;;;;;;2.88;2.67;;;31.30;52.10;;;;;;6276929;28;20249;-63
2022/06/07 08:46:36;;;;;;;4.13;3.13;;;31.60;51.60;;;;;;6276930;28;20264;-63
2022/06/07 08:49:40;;;;;;;2.67;2.47;;;31.40;51.80;;;;;;6276854;28;20538;-64
2022/06/07 08:52:45;;;;;;;3.42;2.75;;;31.30;49.30;;;;;;6276546;28;20593;-63
2022/06/07 08:55:52;;;;;;;3.50;2.78;;;31.10;50.30;;;;;;6276518;28;20227;-65
2022/06/07 08:59:00;;;;;;;2.75;2.20;;;30.50;50.80;;;;;;6277749;28;20227;-63
2022/06/07 09:02:12;;;;;;;3.13;2.83;;;30.20;50.90;;;;;;6276976;28;20231;-63
2022/06/07 09:05:17;;;;;;;3.17;2.87;;;30.00;52.10;;;;;;6276688;28;20235;-64
2022/06/07 09:08:21;;;;;;;3.33;3.03;;;29.60;55.40;;;;;;6276306;28;20704;-63
2022/06/07 09:14:50;;;;;;;4.50;2.90;;;29.50;56.50;;;;;;6276478;28;20246;-63
2022/06/07 09:17:58;;;;;;;3.20;2.90;;;29.60;57.10;;;;;;6276149;28;20223;-63
2022/06/07 09:21:08;;;;;;;5.37;3.77;;;29.50;57.90;;;;;;6275987;28;20287;-63
2022/06/07 09:24:20;;;;;;;3.87;3.53;;;29.40;60.00;;;;;;6276601;28;20238;-63
2022/06/07 09:27:26;;;;;;;4.70;4.20;;;29.10;61.40;;;;;;6276173;28;20672;-63
2022/06/07 09:30:34;;;;;;;3.37;3.17;;;29.20;61.70;;;;;;6277709;28;20223;-63
2022/06/07 09:33:49;;;;;;;4.13;3.50;;;29.40;62.30;;;;;;6278004;28;20235;-64
2022/06/07 09:37:06;;;;;;;5.83;4.03;;;29.50;62.20;;;;;;6276108;28;20242;-64
2022/06/07 09:40:24;;;;;;;3.40;3.10;;;29.80;61.70;;;;;;6275753;28;20571;-64
2022/06/07 09:43:29;;;;;;;6.00;3.33;;;29.90;57.50;;;;;;6275443;28;20228;-64
2022/06/07 09:46:33;;;;;;;3.30;3.10;;;29.70;58.70;;;;;;6275673;28;20234;-64
2022/06/07 09:49:38;;;;;;;3.30;3.00;;;30.00;59.10;;;;;;6275527;28;20230;-64
2022/06/07 09:52:47;;;;;;;4.67;3.20;;;29.90;58.50;;;;;;6275272;28;20340;-64
2022/06/07 09:56:00;;;;;;;3.40;3.20;;;29.80;58.40;;;;;;6275393;28;20704;-64
2022/06/07 09:59:26;;;;;;;3.33;3.07;;;29.80;58.30;;;;;;6275573;28;20743;-64
2022/06/07 10:03:00;;;;;;;3.03;2.83;;;29.70;56.50;;;;;;6275437;28;20242;-64
2022/06/07 10:06:27;;;;;;;3.07;2.87;;;29.80;56.60;;;;;;6275634;28;20305;-64
2022/06/07 10:09:57;;;;;;;2.93;2.63;;;30.00;56.50;;;;;;6273006;28;20230;-64
2022/06/07 10:13:17;;;;;;;2.83;2.63;;;30.60;55.50;;;;;;6274815;28;20246;-64
2022/06/07 10:16:28;;;;;;;3.50;3.20;;;31.00;53.90;;;;;;6275203;28;20231;-64
2022/06/07 10:19:41;;;;;;;3.35;3.05;;;31.00;54.30;;;;;;6274953;28;20227;-66
2022/06/07 10:23:02;;;;;;;3.67;3.38;;;30.70;54.40;;;;;;6275138;28;20254;-64
2022/06/07 10:26:22;;;;;;;3.75;3.45;;;30.40;56.40;;;;;;6275008;28;20310;-64
2022/06/07 10:29:43;;;;;;;5.60;3.93;;;30.20;58.40;;;;;;6274816;28;20705;-64
2022/06/07 10:33:16;;;;;;;4.53;4.10;;;30.00;60.10;;;;;;6274532;28;20225;-64
2022/06/07 10:36:32;;;;;;;3.83;3.60;;;29.70;60.50;;;;;;6275088;28;20227;-64
2022/06/07 10:39:50;;;;;;;4.53;3.80;;;29.50;60.20;;;;;;6274844;28;20276;-64
2022/06/07 10:42:59;;;;;;;5.43;3.90;;;29.50;60.30;;;;;;6274531;28;20704;-64
2022/06/07 10:46:02;;;;;;;4.60;4.20;;;29.40;60.70;;;;;;6274583;28;20238;-64
2022/06/07 10:49:21;;;;;;;3.80;3.60;;;29.00;62.20;;;;;;6274638;28;20237;-64
2022/06/07 10:52:32;;;;;;;3.90;3.60;;;28.30;63.10;;;;;;6274239;28;20653;-64
2022/06/07 10:55:40;;;;;;;4.40;3.63;;;28.10;65.30;;;;;;6274519;28;20231;-64
2022/06/07 10:58:48;;;;;;;4.10;3.80;;;28.20;64.30;;;;;;6274390;28;20353;-64
2022/06/07 11:01:55;;;;;;;3.40;2.87;;;28.10;64.30;;;;;;6277065;28;20223;-64
2022/06/07 11:11:53;;;;;;;3.93;3.00;;;28.80;61.30;;;;;;6279247;28;20241;-64
2022/06/07 11:15:09;;;;;;;3.73;3.47;;;29.00;61.90;;;;;;6279667;28;20238;-64
2022/06/07 11:18:16;;;;;;;4.03;2.90;;;29.10;60.10;;;;;;6279324;28;20238;-64
2022/06/07 11:21:32;;;;;;;2.87;2.67;;;29.00;60.60;;;;;;6278846;28;20238;-64
2022/06/07 11:24:51;;;;;;;7.13;2.83;;;29.40;59.20;;;;;;6280361;28;20227;-64
2022/06/07 11:27:58;;;;;;;3.50;2.93;;;29.50;58.30;;;;;;6280672;28;20238;-64
2022/06/07 11:31:22;;;;;;;3.20;3.00;;;29.60;57.90;;;;;;6279883;28;20223;-64
2022/06/07 11:34:27;;;;;;;2.93;2.73;;;29.50;55.70;;;;;;6279005;28;20288;-64
2022/06/07 11:37:34;;;;;;;4.33;2.27;;;29.10;56.10;;;;;;6278886;28;20310;-64
2022/06/07 11:40:38;;;;;;;3.93;3.00;;;29.00;56.30;;;;;;6278546;28;20259;-64
2022/06/07 11:43:51;;;;;;;3.50;3.20;;;29.10;56.10;;;;;;6278277;28;20237;-64
2022/06/07 11:47:01;;;;;;;4.60;2.93;;;29.50;56.50;;;;;;6277984;28;20597;-64
2022/06/07 11:50:25;;;;;;;4.40;3.00;;;29.40;55.50;;;;;;6278216;28;20676;-65
2022/06/07 11:53:32;;;;;;;2.77;2.20;;;29.50;55.30;;;;;;6277167;28;20228;-65
2022/06/07 11:56:43;;;;;;;2.77;2.57;;;29.60;55.10;;;;;;6278524;28;20192;-65
2022/06/07 11:59:48;;;;;;;3.30;3.00;;;29.70;54.80;;;;;;6273228;28;20203;-65
2022/06/07 12:03:26;;;;;;;2.90;2.60;;;29.70;55.50;;;;;;6277747;28;20565;-65
2022/06/07 12:06:32;;;;;;;2.73;2.53;;;29.70;54.20;;;;;;6274003;28;20242;-64
2022/06/07 12:09:36;;;;;;;3.00;2.80;;;29.10;54.60;;;;;;6277626;28;20572;-64
2022/06/07 12:12:39;;;;;;;2.97;2.50;;;29.20;55.30;;;;;;6276568;28;20238;-65
2022/06/07 12:15:46;;;;;;;2.77;2.50;;;29.50;55.30;;;;;;6277869;28;20227;-65
2022/06/07 12:18:52;;;;;;;2.73;2.53;;;29.50;55.20;;;;;;6277937;28;20250;-64
2022/06/07 12:22:03;;;;;;;3.17;2.87;;;29.50;55.00;;;;;;6277207;28;20657;-64
2022/06/07 12:25:16;;;;;;;3.30;2.83;;;29.40;54.40;;;;;;6277678;28;20238;-64
2022/06/07 12:28:24;;;;;;;3.73;2.87;;;28.80;55.40;;;;;;6277042;28;20227;-64
2022/06/07 12:31:29;;;;;;;3.00;2.20;;;28.70;56.20;;;;;;6277216;28;20235;-65
2022/06/07 12:34:35;;;;;;;3.37;3.07;;;28.60;55.90;;;;;;6277292;28;20629;-64
2022/06/07 12:37:40;;;;;;;2.67;2.40;;;28.70;56.20;;;;;;6277468;28;20689;-64
2022/06/07 12:40:53;;;;;;;3.10;2.30;;;28.80;54.70;;;;;;6277359;28;20587;-64
2022/06/07 12:43:58;;;;;;;3.33;3.03;;;28.70;53.80;;;;;;6276945;28;20230;-64
2022/06/07 12:47:03;;;;;;;4.00;3.60;;;28.70;54.90;;;;;;6277216;28;20729;-64
2022/06/07 12:50:21;;;;;;;3.33;2.87;;;28.70;56.40;;;;;;6276748;28;20567;-64
2022/06/07 12:53:28;;;;;;;3.40;2.87;;;28.70;55.70;;;;;;6276540;28;20239;-64
2022/06/07 12:56:36;;;;;;;2.30;2.10;;;28.50;57.10;;;;;;6276659;28;20199;-64
2022/06/07 12:59:42;;;;;;;4.90;3.10;;;28.50;57.90;;;;;;6276626;28;20218;-64
2022/06/07 13:02:49;;;;;;;3.70;2.60;;;28.70;58.50;;;;;;6276836;28;20227;-64
2022/06/07 13:05:57;;;;;;;3.10;2.80;;;28.80;58.80;;;;;;6272296;28;20253;-64
2022/06/07 13:09:04;;;;;;;3.00;2.80;;;28.90;59.00;;;;;;6276388;28;20665;-64
2022/06/07 13:12:09;;;;;;;2.80;2.20;;;28.60;57.90;;;;;;6276259;28;20695;-64
2022/06/07 13:15:35;;;;;;;3.20;2.87;;;28.70;58.00;;;;;;6276175;28;20227;-64
2022/06/07 13:18:42;;;;;;;3.87;3.57;;;29.00;57.50;;;;;;6276780;28;20242;-65
2022/06/07 13:21:52;;;;;;;3.57;3.27;;;29.10;57.60;;;;;;6276307;28;20581;-65
2022/06/07 13:25:09;;;;;;;4.13;2.90;;;29.20;57.90;;;;;;6275773;28;20370;-64
2022/06/07 13:28:19;;;;;;;3.33;3.00;;;29.30;57.40;;;;;;6276142;28;20227;-64
2022/06/07 13:31:32;;;;;;;3.43;3.23;;;29.10;58.30;;;;;;6276036;28;20310;-64
2022/06/07 13:34:38;;;;;;;3.50;3.20;;;29.10;58.50;;;;;;6276045;28;20238;-64
2022/06/07 13:37:59;;;;;;;4.10;3.13;;;29.20;58.40;;;;;;6275856;28;20234;-65
2022/06/07 13:41:18;;;;;;;5.30;2.80;;;29.30;58.40;;;;;;6275794;28;20223;-64
2022/06/07 13:44:40;;;;;;;3.33;3.13;;;29.10;58.70;;;;;;6276213;28;20223;-64
2022/06/07 13:47:45;;;;;;;3.17;2.90;;;29.10;59.00;;;;;;6296884;28;20203;-64
2022/06/07 13:54:20;;;;;;;3.10;2.90;;;28.90;59.50;;;;;;6299108;28;20231;-64
2022/06/07 13:57:25;;;;;;;4.53;2.73;;;29.00;57.80;;;;;;6299907;28;20250;-64
2022/06/07 14:00:28;;;;;;;3.47;3.13;;;28.90;57.90;;;;;;6299827;28;20237;-64
2022/06/07 14:03:36;;;;;;;5.30;2.70;;;28.70;58.20;;;;;;6299866;28;20519;-64
2022/06/07 14:06:42;;;;;;;3.40;2.90;;;28.60;58.90;;;;;;6298839;28;20222;-64
2022/06/07 14:09:45;;;;;;;3.00;2.70;;;28.20;58.80;;;;;;6299533;28;20240;-64
2022/06/07 14:12:50;;;;;;;3.23;2.93;;;28.10;59.20;;;;;;6299193;28;20227;-64
2022/06/07 14:15:54;;;;;;;4.03;3.07;;;28.10;59.00;;;;;;6299649;28;20230;-65
2022/06/07 14:19:00;;;;;;;2.97;2.77;;;28.10;59.90;;;;;;6299242;28;20309;-65
2022/06/07 14:22:15;;;;;;;3.27;2.63;;;28.10;59.90;;;;;;6299376;28;20237;-63
2022/06/07 14:25:23;;;;;;;2.97;2.77;;;28.10;59.90;;;;;;6299362;28;20238;-64
2022/06/07 14:28:27;;;;;;;4.27;2.70;;;28.10;60.60;;;;;;6299403;28;20284;-63
2022/06/07 14:31:35;;;;;;;3.40;3.20;;;28.10;59.90;;;;;;6299181;28;20615;-63
2022/06/07 14:34:39;;;;;;;4.13;3.20;;;27.90;60.70;;;;;;6299328;28;20236;-63
2022/06/07 14:37:42;;;;;;;3.23;3.00;;;28.00;61.30;;;;;;6299037;28;20227;-63
2022/06/07 14:40:47;;;;;;;3.50;3.20;;;27.90;61.70;;;;;;6299070;28;20241;-63
2022/06/07 14:43:52;;;;;;;4.53;2.70;;;27.80;62.10;;;;;;6298875;28;20237;-63
2022/06/07 14:46:56;;;;;;;3.40;3.10;;;27.50;62.30;;;;;;6299046;28;20364;-63
2022/06/07 14:50:00;;;;;;;3.33;2.77;;;27.40;63.20;;;;;;6299115;28;20227;-63
2022/06/07 14:53:11;;;;;;;5.50;3.20;;;27.50;62.90;;;;;;6298614;28;20313;-63
2022/06/07 14:56:16;;;;;;;3.70;2.70;;;27.50;62.30;;;;;;6298715;28;20313;-63
2022/06/07 14:59:21;;;;;;;3.47;3.17;;;27.50;62.30;;;;;;6298965;28;20570;-63
2022/06/07 15:02:28;;;;;;;3.10;2.80;;;27.60;62.30;;;;;;6298614;28;20237;-63
2022/06/07 15:05:34;;;;;;;3.63;2.97;;;27.60;63.10;;;;;;6298426;28;20534;-64
2022/06/07 15:08:37;;;;;;;3.50;3.20;;;27.60;63.30;;;;;;6299598;28;20183;-64
2022/06/07 15:11:40;;;;;;;4.80;3.67;;;27.50;64.00;;;;;;6289486;28;20241;-64
2022/06/07 15:14:47;;;;;;;4.43;4.03;;;27.40;66.10;;;;;;6299077;28;20207;-64
2022/06/07 15:17:54;;;;;;;5.23;2.93;;;26.90;69.00;;;;;;6299316;28;20562;-64
2022/06/07 15:20:57;;;;;;;2.83;2.63;;;26.50;71.70;;;;;;6298688;28;20223;-64
2022/06/07 15:24:01;;;;;;;2.33;2.17;;;26.20;73.60;;;;;;6298232;28;20233;-64
2022/06/07 15:27:06;;;;;;;2.37;2.10;;;26.00;74.00;;;;;;6298393;28;20218;-63
2022/06/07 15:30:12;;;;;;;3.60;2.63;;;25.70;75.90;;;;;;6298546;28;20598;-63
2022/06/07 15:33:19;;;;;;;2.67;2.47;;;25.30;77.30;;;;;;6298689;28;20314;-64
2022/06/07 15:36:23;;;;;;;3.87;2.20;;;24.90;79.10;;;;;;6298941;28;20254;-63
2022/06/07 15:39:26;;;;;;;2.60;2.07;;;24.70;80.30;;;;;;6291680;28;20219;-63
2022/06/07 15:42:53;;;;;;;2.23;1.80;;;24.30;81.10;;;;;;6273874;28;20239;-64
2022/06/07 15:45:57;;;;;;;2.83;2.53;;;23.90;82.80;;;;;;6286827;28;20238;-64
2022/06/07 15:49:01;;;;;;;1.90;1.80;;;23.70;84.60;;;;;;6303126;28;20231;-64
2022/06/07 15:52:05;;;;;;;1.83;1.73;;;23.60;85.60;;;;;;6303189;28;20249;-63
2022/06/07 15:55:09;;;;;;;2.07;1.83;;;23.30;87.50;;;;;;6303119;28;20227;-63
2022/06/07 16:01:38;;;;;;;2.97;2.33;;;23.00;90.70;;;;;;6302423;28;20695;-63
2022/06/07 16:04:41;;;;;;;2.53;2.33;;;22.80;92.00;;;;;;6301742;28;20237;-63
2022/06/07 16:07:45;;;;;;;3.30;2.17;;;22.60;92.60;;;;;;6301116;28;20231;-62
2022/06/07 16:10:49;;;;;;;2.93;2.33;;;22.40;93.10;;;;;;6303005;28;20223;-63
2022/06/07 16:13:52;;;;;;;1.87;1.70;;;22.30;93.50;;;;;;6302249;28;20241;-63
2022/06/07 16:16:56;;;;;;;1.87;1.67;;;22.20;93.40;;;;;;6293491;28;20243;-62
2022/06/07 16:20:00;;;;;;;3.07;2.03;;;22.10;93.10;;;;;;6302653;28;20273;-62
2022/06/07 16:23:04;;;;;;;1.50;1.40;;;22.10;93.30;;;;;;6301735;28;20261;-62
2022/06/07 16:26:08;;;;;;;2.30;1.97;;;21.90;93.30;;;;;;6302707;28;20237;-62
2022/06/07 16:36:02;;;;;;;1.70;1.60;;;21.90;94.40;;;;;;6302044;28;20586;-62
2022/06/07 16:39:08;;;;;;;4.13;1.30;;;21.90;94.70;;;;;;6302006;28;20340;-62
2022/06/07 16:42:11;;;;;;;3.40;2.00;;;21.90;94.70;;;;;;6301880;28;20680;-63
2022/06/07 16:45:14;;;;;;;1.47;1.37;;;21.90;94.50;;;;;;6301740;28;20223;-63
2022/06/07 16:48:18;;;;;;;2.00;1.57;;;22.10;94.30;;;;;;6302449;28;20225;-63
2022/06/07 16:51:23;;;;;;;1.43;1.33;;;22.10;94.40;;;;;;6302416;28;20219;-62
2022/06/07 16:54:32;;;;;;;1.67;1.57;;;22.10;94.70;;;;;;6302183;28;20558;-63
2022/06/07 16:57:36;;;;;;;2.50;1.50;;;22.10;94.10;;;;;;6301668;28;20230;-63
2022/06/07 17:00:40;;;;;;;1.30;1.20;;;22.00;94.10;;;;;;6300761;28;20648;-63
2022/06/07 17:03:45;;;;;;;2.50;1.40;;;21.90;94.20;;;;;;6301648;28;20552;-63
2022/06/07 17:06:50;;;;;;;1.67;1.50;;;21.80;94.00;;;;;;6302137;28;20235;-63